Historyczne dane pomiarowe

Dodano dane terminowe – wersja testowa.

Dane z okresu 1951-2019

Wersja bazy: 1.34 [2019-03-16, lista zmian], aktualizacja planowana na 2019-04-15

Dane meteo z obszaru Polski uzyskane na podstawie danych udostępnionych przez Instytut Meteorologii i Gospodarki Wodnej – Państwowy Instytut Badawczy.

 

Wybierz Datę:    

       

TemperaturaWilgotnośćWiatrCiśnienieOpadyŚniegCzas trwania zjawisk
 Stacja t tx tn tng RH VA  wxwx mslp ppp RRR   cm mm wxwxwxwxwxwxwx
1999-08-14 14.7 18.0 9.9 9.1 80.8- 4.3 3.3---- 1.4------------
1999-08-13 14.8 17.3 13.7 12.9 95.0- 7.3 6.3---- 18.8------------
1999-08-12 16.3 21.1 12.1 10.4 80.3- 5.7 4.3---- 0.0------------
1999-08-11 16.5 20.4 12.7 12.3 89.5- 5.7 2.3---- 10.2------------
1999-08-10 18.8 24.5 14.9 12.9 81.3- 7.0 1.7---- 2.7------------
1999-08-09 21.2 27.6 17.3 16.3 74.0- 4.0 3.3---- 0.2------------
1999-08-08 18.6 21.2 15.3 15.0 90.8- 7.0 3.3---- 4.6------------
1999-08-07 20.2 26.6 14.4 13.3 73.3- 3.0 4.0---- 0.3------------
1999-08-06 20.8 27.9 12.5 10.6 54.8- 4.7 2.0---- 0.0------------
1999-08-05 18.7 26.0 9.1 7.9 65.5- 3.3 2.7---- 0.0------------
1999-08-04 17.7 24.5 10.1 9.6 77.5- 2.0 2.0---- 0.0------------
1999-08-03 18.6 24.6 11.3 9.1 75.3- 1.0 2.0---- 0.0------------
1999-08-02 18.7 24.0 11.1 8.4 61.0- 0.3 2.7---- 0.0------------
1999-08-01 19.0 23.6 12.2 9.5 60.5- 0.7 3.7---- 0.0------------
1999-07-31 17.9 24.1 10.0 8.0 76.8- 2.0 2.7---- 0.0------------
1999-07-30 18.0 22.9 10.7 9.0 69.8- 1.3 1.7---- 0.0------------
1999-07-29 17.8 23.6 9.5 7.3 61.5- 0.7 3.3---- 0.0------------
1999-07-28 16.4 20.7 9.2 7.4 68.3- 1.3 3.0---- 0.0------------
1999-07-27 15.1 19.3 9.7 7.3 70.8- 2.0 2.7---- 0.0------------
1999-07-26 17.4 21.4 15.4 12.5 79.8- 6.7 3.3---- 0.0------------
1999-07-25 19.2 22.5 15.2 14.2 74.8- 5.7 4.0---- 8.5------------
1999-07-24 16.8 20.3 12.1 11.0 76.8- 7.0 4.0---- 0.0------------
1999-07-23 17.1 22.0 12.3 11.2 70.5- 5.3 3.0---- 0.1------------
1999-07-22 17.4 20.4 14.1 12.5 60.0- 5.3 3.7---- 0.0------------
1999-07-21 21.3 27.2 17.2 15.8 78.5- 3.0 2.3---- 5.6------------
1999-07-20 21.4 30.6 12.3 11.0 60.8- 3.3 2.7---- 2.4------------
1999-07-19 19.0 23.7 14.2 12.9 74.8- 3.7 3.0---- 0.0------------
1999-07-18 19.2 25.6 14.7 13.9 71.5- 4.3 2.3---- 0.0------------
1999-07-17 17.2 21.6 11.9 10.1 66.5- 6.0 3.7---- 3.0------------
1999-07-16 16.2 19.5 12.2 10.1 65.5- 3.7 3.3---- 1.4------------
1999-07-15 16.7 19.6 15.3 15.0 80.5- 7.3 4.0---- 0.0------------
1999-07-14 20.6 26.4 18.2 18.2 81.8- 7.0 4.3---- 7.0------------
1999-07-13 22.9 28.8 16.9 13.9 61.0- 6.3 3.0---- 0.0------------
1999-07-12 21.2 27.4 12.7 10.5 65.8- 4.0 3.0---- 0.0------------
1999-07-11 20.5 25.2 13.7 10.4 68.5- 0.3 4.0---- 0.0------------
1999-07-10 18.7 22.6 14.3 9.5 68.0- 0.7 4.3---- 0.0------------
1999-07-09 16.7 19.5 14.2 12.8 70.8- 1.7 5.3---- 0.0------------
1999-07-08 17.8 21.3 14.3 13.9 80.8- 7.0 4.0---- 0.0------------
1999-07-07 17.3 21.1 14.2 13.4 83.0- 7.0 3.7---- 0.0------------
1999-07-06 22.5 29.0 18.2 18.9 71.3- 6.7 4.3---- 0.2------------
1999-07-05 24.1 31.7 14.9 13.9 60.0- 2.7 4.0---- 0.0------------
1999-07-04 20.5 27.8 13.7 12.4 73.8- 5.7 3.0---- 0.0------------
1999-07-03 18.0 23.1 12.8 10.7 73.5- 3.3 3.7---- 0.3------------
1999-07-02 16.6 20.6 13.3 13.0 80.8- 6.7 1.7---- 0.0------------
1999-07-01 18.6 23.1 13.2 1.5 76.8- 7.3 3.3---- 3.4------------
1999-06-30 19.3 24.2 11.1 9.9 60.5- 5.0 2.0---- 0.0------------
1999-06-29 17.1 22.3 13.3 12.3 70.0- 3.7 2.3---- 0.0------------
1999-06-28 20.3 26.9 14.7 13.4 68.0- 5.7 3.7---- 10.4------------
1999-06-27 18.4 26.0 9.2 7.2 68.3- 5.0 4.0---- 0.0------------
1999-06-26 13.0 17.3 7.3 6.0 75.3- 4.7 2.7---- 1.5------------
1999-06-25 13.0 16.5 9.8 9.4 78.3- 6.7 1.7---- 1.2------------
1999-06-24 12.8 16.3 8.4 7.3 80.5- 6.0 3.3---- 0.0------------
1999-06-23 11.3 13.6 8.7 8.4 89.5- 7.3 5.3---- 0.9------------
1999-06-22 11.2 12.8 9.5 9.3 84.5- 7.0 7.7---- 18.9------------
1999-06-21 16.4 21.5 12.7 12.9 75.8- 7.0 5.3---- 0.0------------
1999-06-20 18.4 23.2 13.8 13.2 61.0- 6.3 2.3---- 0.0------------
1999-06-19 18.3 24.0 14.3 13.9 88.3- 6.3 3.3---- 1.3------------
1999-06-18 16.8 22.1 10.3 8.4 75.5- 3.3 3.0---- 0.0------------
1999-06-17 15.7 21.0 10.2 9.1 75.0- 5.3 2.3---- 0.0------------
1999-06-16 15.8 20.0 10.2 8.5 74.8- 4.3 2.0---- 0.0------------
612.8 ms

 

Źródłem pochodzenia danych jest Instytut Meteorologii i Gospodarki Wodnej – Państwowy Instytut Badawczy. Dane Instytutu Meteorologii i Gospodarki Wodnej – Państwowego Instytutu Badawczego zostały przetworzone.

Dane źródłowe można odnaleźć na stronie https://dane.imgw.pl